sensor_id;sensor_type;location;lat;lon;timestamp;P1;P2;P0
67892;PMS7003;54688;52.376;16.744;2023-01-15T00:00:11;8;4;
67892;PMS7003;54688;52.376;16.744;2023-01-15T00:07:12;8;5;
67892;PMS7003;54688;52.376;16.744;2023-01-15T00:10:15;4;3;
67892;PMS7003;54688;52.376;16.744;2023-01-15T00:13:18;5;3;
67892;PMS7003;54688;52.376;16.744;2023-01-15T00:16:21;5;3;
67892;PMS7003;54688;52.376;16.744;2023-01-15T00:19:24;1;1;
67892;PMS7003;54688;52.376;16.744;2023-01-15T00:22:26;4;2;
67892;PMS7003;54688;52.376;16.744;2023-01-15T00:25:29;3;3;
67892;PMS7003;54688;52.376;16.744;2023-01-15T00:28:31;2;2;
67892;PMS7003;54688;52.376;16.744;2023-01-15T00:31:34;2;2;
67892;PMS7003;54688;52.376;16.744;2023-01-15T00:34:36;3;2;
67892;PMS7003;54688;52.376;16.744;2023-01-15T00:37:38;2;2;
67892;PMS7003;54688;52.376;16.744;2023-01-15T00:40:40;2;2;
67892;PMS7003;54688;52.376;16.744;2023-01-15T00:43:42;2;1;
67892;PMS7003;54688;52.376;16.744;2023-01-15T00:46:45;2;2;
67892;PMS7003;54688;52.376;16.744;2023-01-15T00:49:47;3;1;
67892;PMS7003;54688;52.376;16.744;2023-01-15T00:52:49;1;1;
67892;PMS7003;54688;52.376;16.744;2023-01-15T00:55:51;3;2;
67892;PMS7003;54688;52.376;16.744;2023-01-15T00:58:54;2;1;
67892;PMS7003;54688;52.376;16.744;2023-01-15T01:04:55;1;1;
67892;PMS7003;54688;52.376;16.744;2023-01-15T01:07:57;2;2;
67892;PMS7003;54688;52.376;16.744;2023-01-15T01:11:01;0;0;
67892;PMS7003;54688;52.376;16.744;2023-01-15T01:14:04;2;0;
67892;PMS7003;54688;52.376;16.744;2023-01-15T01:17:06;1;1;
67892;PMS7003;54688;52.376;16.744;2023-01-15T01:20:08;1;1;
67892;PMS7003;54688;52.376;16.744;2023-01-15T01:23:13;2;1;
67892;PMS7003;54688;52.376;16.744;2023-01-15T01:26:16;1;1;
67892;PMS7003;54688;52.376;16.744;2023-01-15T01:29:20;2;2;
67892;PMS7003;54688;52.376;16.744;2023-01-15T01:32:23;2;2;
67892;PMS7003;54688;52.376;16.744;2023-01-15T01:35:25;2;2;
67892;PMS7003;54688;52.376;16.744;2023-01-15T01:38:27;2;1;
67892;PMS7003;54688;52.376;16.744;2023-01-15T01:41:29;0;0;
67892;PMS7003;54688;52.376;16.744;2023-01-15T01:45:06;2;1;
67892;PMS7003;54688;52.376;16.744;2023-01-15T01:48:09;0;0;
67892;PMS7003;54688;52.376;16.744;2023-01-15T01:51:11;0;0;
67892;PMS7003;54688;52.376;16.744;2023-01-15T01:54:16;2;1;
67892;PMS7003;54688;52.376;16.744;2023-01-15T01:57:21;2;0;
67892;PMS7003;54688;52.376;16.744;2023-01-15T02:00:24;1;1;
67892;PMS7003;54688;52.376;16.744;2023-01-15T02:03:31;4;1;
67892;PMS7003;54688;52.376;16.744;2023-01-15T02:06:34;0;0;
67892;PMS7003;54688;52.376;16.744;2023-01-15T02:09:38;3;1;
67892;PMS7003;54688;52.376;16.744;2023-01-15T02:12:41;1;1;
67892;PMS7003;54688;52.376;16.744;2023-01-15T02:15:52;1;0;
67892;PMS7003;54688;52.376;16.744;2023-01-15T02:19:02;0;0;
67892;PMS7003;54688;52.376;16.744;2023-01-15T02:22:14;2;1;
67892;PMS7003;54688;52.376;16.744;2023-01-15T02:25:26;0;0;
67892;PMS7003;54688;52.376;16.744;2023-01-15T02:28:32;2;0;
67892;PMS7003;54688;52.376;16.744;2023-01-15T02:31:36;0;0;
67892;PMS7003;54688;52.376;16.744;2023-01-15T02:34:45;3;0;
67892;PMS7003;54688;52.376;16.744;2023-01-15T02:37:51;1;1;
67892;PMS7003;54688;52.376;16.744;2023-01-15T02:40:57;0;0;
67892;PMS7003;54688;52.376;16.744;2023-01-15T02:47:00;0;0;
67892;PMS7003;54688;52.376;16.744;2023-01-15T02:50:08;1;1;
67892;PMS7003;54688;52.376;16.744;2023-01-15T02:53:15;0;0;
67892;PMS7003;54688;52.376;16.744;2023-01-15T02:56:21;0;0;
67892;PMS7003;54688;52.376;16.744;2023-01-15T02:59:28;1;0;
67892;PMS7003;54688;52.376;16.744;2023-01-15T03:02:37;0;0;
67892;PMS7003;54688;52.376;16.744;2023-01-15T03:05:44;1;0;
67892;PMS7003;54688;52.376;16.744;2023-01-15T03:08:47;1;0;
67892;PMS7003;54688;52.376;16.744;2023-01-15T03:11:58;0;0;
67892;PMS7003;54688;52.376;16.744;2023-01-15T03:15:07;2;0;
67892;PMS7003;54688;52.376;16.744;2023-01-15T03:18:12;1;1;
67892;PMS7003;54688;52.376;16.744;2023-01-15T03:21:20;2;1;
67892;PMS7003;54688;52.376;16.744;2023-01-15T03:24:30;2;0;
67892;PMS7003;54688;52.376;16.744;2023-01-15T03:27:32;1;1;
67892;PMS7003;54688;52.376;16.744;2023-01-15T03:30:34;0;0;
67892;PMS7003;54688;52.376;16.744;2023-01-15T03:33:36;0;0;
67892;PMS7003;54688;52.376;16.744;2023-01-15T03:36:39;0;0;
67892;PMS7003;54688;52.376;16.744;2023-01-15T03:39:41;1;1;
67892;PMS7003;54688;52.376;16.744;2023-01-15T03:42:49;0;0;
67892;PMS7003;54688;52.376;16.744;2023-01-15T03:45:58;1;1;
67892;PMS7003;54688;52.376;16.744;2023-01-15T03:49:09;1;1;
67892;PMS7003;54688;52.376;16.744;2023-01-15T03:52:19;0;0;
67892;PMS7003;54688;52.376;16.744;2023-01-15T03:55:26;2;0;
67892;PMS7003;54688;52.376;16.744;2023-01-15T03:58:37;1;1;
67892;PMS7003;54688;52.376;16.744;2023-01-15T04:01:41;0;0;
67892;PMS7003;54688;52.376;16.744;2023-01-15T04:04:46;0;0;
67892;PMS7003;54688;52.376;16.744;2023-01-15T04:07:50;2;1;
67892;PMS7003;54688;52.376;16.744;2023-01-15T04:10:55;2;1;
67892;PMS7003;54688;52.376;16.744;2023-01-15T04:13:58;0;0;
67892;PMS7003;54688;52.376;16.744;2023-01-15T04:17:00;0;0;
67892;PMS7003;54688;52.376;16.744;2023-01-15T04:20:04;0;0;
67892;PMS7003;54688;52.376;16.744;2023-01-15T04:23:06;0;0;
67892;PMS7003;54688;52.376;16.744;2023-01-15T04:26:08;1;0;
67892;PMS7003;54688;52.376;16.744;2023-01-15T04:29:10;0;0;
67892;PMS7003;54688;52.376;16.744;2023-01-15T04:32:12;1;0;
67892;PMS7003;54688;52.376;16.744;2023-01-15T04:35:15;0;0;
67892;PMS7003;54688;52.376;16.744;2023-01-15T04:38:17;3;2;
67892;PMS7003;54688;52.376;16.744;2023-01-15T04:41:19;0;0;
67892;PMS7003;54688;52.376;16.744;2023-01-15T04:44:21;1;1;
67892;PMS7003;54688;52.376;16.744;2023-01-15T04:47:24;2;1;
67892;PMS7003;54688;52.376;16.744;2023-01-15T04:53:26;0;0;
67892;PMS7003;54688;52.376;16.744;2023-01-15T04:56:29;1;1;
67892;PMS7003;54688;52.376;16.744;2023-01-15T04:59:32;1;1;
67892;PMS7003;54688;52.376;16.744;2023-01-15T05:02:34;4;2;
67892;PMS7003;54688;52.376;16.744;2023-01-15T05:05:37;3;1;
67892;PMS7003;54688;52.376;16.744;2023-01-15T05:08:38;3;2;
67892;PMS7003;54688;52.376;16.744;2023-01-15T05:11:41;0;0;
67892;PMS7003;54688;52.376;16.744;2023-01-15T05:14:43;2;2;
67892;PMS7003;54688;52.376;16.744;2023-01-15T05:17:46;3;1;
67892;PMS7003;54688;52.376;16.744;2023-01-15T05:20:48;2;1;
67892;PMS7003;54688;52.376;16.744;2023-01-15T05:23:52;3;1;
67892;PMS7003;54688;52.376;16.744;2023-01-15T05:26:55;4;1;
67892;PMS7003;54688;52.376;16.744;2023-01-15T05:29:58;2;2;
67892;PMS7003;54688;52.376;16.744;2023-01-15T05:33:01;2;2;
67892;PMS7003;54688;52.376;16.744;2023-01-15T05:36:05;3;2;
67892;PMS7003;54688;52.376;16.744;2023-01-15T05:39:07;2;2;
67892;PMS7003;54688;52.376;16.744;2023-01-15T05:42:09;1;1;
67892;PMS7003;54688;52.376;16.744;2023-01-15T05:45:11;3;3;
67892;PMS7003;54688;52.376;16.744;2023-01-15T05:48:14;3;1;
67892;PMS7003;54688;52.376;16.744;2023-01-15T05:51:16;2;2;
67892;PMS7003;54688;52.376;16.744;2023-01-15T05:54:19;2;2;
67892;PMS7003;54688;52.376;16.744;2023-01-15T05:57:22;3;3;
67892;PMS7003;54688;52.376;16.744;2023-01-15T06:00:24;4;2;
67892;PMS7003;54688;52.376;16.744;2023-01-15T06:03:27;2;2;
67892;PMS7003;54688;52.376;16.744;2023-01-15T06:06:30;4;3;
67892;PMS7003;54688;52.376;16.744;2023-01-15T06:09:32;2;2;
67892;PMS7003;54688;52.376;16.744;2023-01-15T06:12:35;4;3;
67892;PMS7003;54688;52.376;16.744;2023-01-15T06:15:38;5;4;
67892;PMS7003;54688;52.376;16.744;2023-01-15T06:18:41;2;2;
67892;PMS7003;54688;52.376;16.744;2023-01-15T06:21:43;3;3;
67892;PMS7003;54688;52.376;16.744;2023-01-15T06:24:45;4;3;
67892;PMS7003;54688;52.376;16.744;2023-01-15T06:27:48;2;2;
67892;PMS7003;54688;52.376;16.744;2023-01-15T06:30:50;3;3;
67892;PMS7003;54688;52.376;16.744;2023-01-15T06:33:52;2;2;
67892;PMS7003;54688;52.376;16.744;2023-01-15T06:36:54;3;3;
67892;PMS7003;54688;52.376;16.744;2023-01-15T06:39:56;4;3;
67892;PMS7003;54688;52.376;16.744;2023-01-15T06:42:58;3;3;
67892;PMS7003;54688;52.376;16.744;2023-01-15T06:48:59;4;3;
67892;PMS7003;54688;52.376;16.744;2023-01-15T06:52:03;6;4;
67892;PMS7003;54688;52.376;16.744;2023-01-15T06:58:05;4;1;
67892;PMS7003;54688;52.376;16.744;2023-01-15T07:01:08;4;4;
67892;PMS7003;54688;52.376;16.744;2023-01-15T07:04:10;3;1;
67892;PMS7003;54688;52.376;16.744;2023-01-15T07:07:13;2;2;
67892;PMS7003;54688;52.376;16.744;2023-01-15T07:10:16;3;3;
67892;PMS7003;54688;52.376;16.744;2023-01-15T07:13:18;2;2;
67892;PMS7003;54688;52.376;16.744;2023-01-15T07:16:21;3;3;
67892;PMS7003;54688;52.376;16.744;2023-01-15T07:19:23;2;2;
67892;PMS7003;54688;52.376;16.744;2023-01-15T07:22:24;3;3;
67892;PMS7003;54688;52.376;16.744;2023-01-15T07:25:26;5;5;
67892;PMS7003;54688;52.376;16.744;2023-01-15T07:31:28;4;3;
67892;PMS7003;54688;52.376;16.744;2023-01-15T07:34:30;4;4;
67892;PMS7003;54688;52.376;16.744;2023-01-15T07:37:32;3;3;
67892;PMS7003;54688;52.376;16.744;2023-01-15T07:40:34;2;2;
67892;PMS7003;54688;52.376;16.744;2023-01-15T07:43:36;3;2;
67892;PMS7003;54688;52.376;16.744;2023-01-15T07:46:39;3;3;
67892;PMS7003;54688;52.376;16.744;2023-01-15T07:49:42;6;6;
67892;PMS7003;54688;52.376;16.744;2023-01-15T07:52:44;7;5;
67892;PMS7003;54688;52.376;16.744;2023-01-15T07:55:47;8;6;
67892;PMS7003;54688;52.376;16.744;2023-01-15T07:58:49;6;6;
67892;PMS7003;54688;52.376;16.744;2023-01-15T08:01:51;3;3;
67892;PMS7003;54688;52.376;16.744;2023-01-15T08:04:53;3;3;
67892;PMS7003;54688;52.376;16.744;2023-01-15T08:07:56;4;3;
67892;PMS7003;54688;52.376;16.744;2023-01-15T08:11:00;6;4;
67892;PMS7003;54688;52.376;16.744;2023-01-15T08:14:02;4;2;
67892;PMS7003;54688;52.376;16.744;2023-01-15T08:17:05;4;4;
67892;PMS7003;54688;52.376;16.744;2023-01-15T08:20:11;2;2;
67892;PMS7003;54688;52.376;16.744;2023-01-15T08:23:14;3;2;
67892;PMS7003;54688;52.376;16.744;2023-01-15T08:26:16;5;5;
67892;PMS7003;54688;52.376;16.744;2023-01-15T08:29:18;4;4;
67892;PMS7003;54688;52.376;16.744;2023-01-15T08:35:20;4;4;
67892;PMS7003;54688;52.376;16.744;2023-01-15T08:38:22;3;3;
67892;PMS7003;54688;52.376;16.744;2023-01-15T08:41:23;3;3;
67892;PMS7003;54688;52.376;16.744;2023-01-15T08:44:25;3;2;
67892;PMS7003;54688;52.376;16.744;2023-01-15T08:47:27;3;3;
67892;PMS7003;54688;52.376;16.744;2023-01-15T08:50:29;6;4;
67892;PMS7003;54688;52.376;16.744;2023-01-15T08:53:32;3;3;
67892;PMS7003;54688;52.376;16.744;2023-01-15T08:56:34;7;4;
67892;PMS7003;54688;52.376;16.744;2023-01-15T09:02:35;5;3;
67892;PMS7003;54688;52.376;16.744;2023-01-15T09:05:37;2;2;
67892;PMS7003;54688;52.376;16.744;2023-01-15T09:08:40;4;2;
67892;PMS7003;54688;52.376;16.744;2023-01-15T09:11:42;2;2;
67892;PMS7003;54688;52.376;16.744;2023-01-15T09:14:44;5;4;
67892;PMS7003;54688;52.376;16.744;2023-01-15T09:17:45;2;2;
67892;PMS7003;54688;52.376;16.744;2023-01-15T09:20:48;0;0;
67892;PMS7003;54688;52.376;16.744;2023-01-15T09:23:50;1;1;
67892;PMS7003;54688;52.376;16.744;2023-01-15T09:26:52;3;2;
67892;PMS7003;54688;52.376;16.744;2023-01-15T09:29:54;6;2;
67892;PMS7003;54688;52.376;16.744;2023-01-15T09:32:56;4;4;
67892;PMS7003;54688;52.376;16.744;2023-01-15T09:35:58;1;1;
67892;PMS7003;54688;52.376;16.744;2023-01-15T09:39:03;3;3;
67892;PMS7003;54688;52.376;16.744;2023-01-15T09:42:16;6;6;
67892;PMS7003;54688;52.376;16.744;2023-01-15T09:45:24;1;1;
67892;PMS7003;54688;52.376;16.744;2023-01-15T09:48:35;3;1;
67892;PMS7003;54688;52.376;16.744;2023-01-15T09:51:48;2;0;
67892;PMS7003;54688;52.376;16.744;2023-01-15T09:55:01;1;1;
67892;PMS7003;54688;52.376;16.744;2023-01-15T09:58:09;2;2;
67892;PMS7003;54688;52.376;16.744;2023-01-15T10:01:15;6;3;
67892;PMS7003;54688;52.376;16.744;2023-01-15T10:04:31;4;2;
67892;PMS7003;54688;52.376;16.744;2023-01-15T10:07:39;1;1;
67892;PMS7003;54688;52.376;16.744;2023-01-15T10:10:44;2;2;
67892;PMS7003;54688;52.376;16.744;2023-01-15T10:13:48;1;1;
67892;PMS7003;54688;52.376;16.744;2023-01-15T10:16:53;0;0;
67892;PMS7003;54688;52.376;16.744;2023-01-15T10:19:55;0;0;
67892;PMS7003;54688;52.376;16.744;2023-01-15T10:23:09;1;1;
67892;PMS7003;54688;52.376;16.744;2023-01-15T10:26:14;0;0;
67892;PMS7003;54688;52.376;16.744;2023-01-15T10:29:27;2;1;
67892;PMS7003;54688;52.376;16.744;2023-01-15T10:32:38;0;0;
67892;PMS7003;54688;52.376;16.744;2023-01-15T10:35:50;0;0;
67892;PMS7003;54688;52.376;16.744;2023-01-15T10:42:03;0;0;
67892;PMS7003;54688;52.376;16.744;2023-01-15T10:45:14;0;0;
67892;PMS7003;54688;52.376;16.744;2023-01-15T10:48:24;1;0;
67892;PMS7003;54688;52.376;16.744;2023-01-15T10:51:33;0;0;
67892;PMS7003;54688;52.376;16.744;2023-01-15T10:54:41;1;0;
67892;PMS7003;54688;52.376;16.744;2023-01-15T10:57:52;0;0;
67892;PMS7003;54688;52.376;16.744;2023-01-15T11:00:57;0;0;
67892;PMS7003;54688;52.376;16.744;2023-01-15T11:04:01;3;1;
67892;PMS7003;54688;52.376;16.744;2023-01-15T11:07:03;5;4;
67892;PMS7003;54688;52.376;16.744;2023-01-15T11:10:10;11;10;
67892;PMS7003;54688;52.376;16.744;2023-01-15T11:13:19;5;4;
67892;PMS7003;54688;52.376;16.744;2023-01-15T11:16:24;6;3;
67892;PMS7003;54688;52.376;16.744;2023-01-15T11:19:30;5;4;
67892;PMS7003;54688;52.376;16.744;2023-01-15T11:22:37;6;4;
67892;PMS7003;54688;52.376;16.744;2023-01-15T11:25:47;2;2;
67892;PMS7003;54688;52.376;16.744;2023-01-15T11:28:51;4;4;
67892;PMS7003;54688;52.376;16.744;2023-01-15T11:31:53;2;2;
67892;PMS7003;54688;52.376;16.744;2023-01-15T11:34:56;1;1;
67892;PMS7003;54688;52.376;16.744;2023-01-15T11:38:01;4;3;
67892;PMS7003;54688;52.376;16.744;2023-01-15T11:41:03;3;3;
67892;PMS7003;54688;52.376;16.744;2023-01-15T11:50:16;14;9;
67892;PMS7003;54688;52.376;16.744;2023-01-15T11:53:22;14;10;
67892;PMS7003;54688;52.376;16.744;2023-01-15T11:56:26;9;9;
67892;PMS7003;54688;52.376;16.744;2023-01-15T11:59:29;22;20;
67892;PMS7003;54688;52.376;16.744;2023-01-15T12:02:34;20;20;
67892;PMS7003;54688;52.376;16.744;2023-01-15T12:05:45;34;22;
67892;PMS7003;54688;52.376;16.744;2023-01-15T12:08:49;14;14;
67892;PMS7003;54688;52.376;16.744;2023-01-15T12:12:05;15;10;
67892;PMS7003;54688;52.376;16.744;2023-01-15T12:15:22;9;8;
67892;PMS7003;54688;52.376;16.744;2023-01-15T12:18:42;10;8;
67892;PMS7003;54688;52.376;16.744;2023-01-15T12:21:58;8;6;
67892;PMS7003;54688;52.376;16.744;2023-01-15T12:25:41;7;6;
67892;PMS7003;54688;52.376;16.744;2023-01-15T12:28:52;9;4;
67892;PMS7003;54688;52.376;16.744;2023-01-15T12:31:58;7;5;
67892;PMS7003;54688;52.376;16.744;2023-01-15T12:35:05;9;6;
67892;PMS7003;54688;52.376;16.744;2023-01-15T12:38:14;7;3;
67892;PMS7003;54688;52.376;16.744;2023-01-15T12:41:22;5;2;
67892;PMS7003;54688;52.376;16.744;2023-01-15T12:44:35;4;3;
67892;PMS7003;54688;52.376;16.744;2023-01-15T12:47:42;9;4;
67892;PMS7003;54688;52.376;16.744;2023-01-15T12:50:47;4;4;
67892;PMS7003;54688;52.376;16.744;2023-01-15T12:53:54;6;4;
67892;PMS7003;54688;52.376;16.744;2023-01-15T12:57:02;4;4;
67892;PMS7003;54688;52.376;16.744;2023-01-15T13:00:12;2;2;
67892;PMS7003;54688;52.376;16.744;2023-01-15T13:03:21;5;4;
67892;PMS7003;54688;52.376;16.744;2023-01-15T13:06:25;8;4;
67892;PMS7003;54688;52.376;16.744;2023-01-15T13:09:35;7;4;
67892;PMS7003;54688;52.376;16.744;2023-01-15T13:12:38;5;5;
67892;PMS7003;54688;52.376;16.744;2023-01-15T13:15:51;13;7;
67892;PMS7003;54688;52.376;16.744;2023-01-15T13:19:09;11;10;
67892;PMS7003;54688;52.376;16.744;2023-01-15T13:22:27;12;10;
67892;PMS7003;54688;52.376;16.744;2023-01-15T13:25:40;10;9;
67892;PMS7003;54688;52.376;16.744;2023-01-15T13:28:53;9;7;
67892;PMS7003;54688;52.376;16.744;2023-01-15T13:32:01;12;6;
67892;PMS7003;54688;52.376;16.744;2023-01-15T13:35:06;26;21;
67892;PMS7003;54688;52.376;16.744;2023-01-15T13:38:17;24;20;
67892;PMS7003;54688;52.376;16.744;2023-01-15T13:41:23;7;6;
67892;PMS7003;54688;52.376;16.744;2023-01-15T13:44:30;9;8;
67892;PMS7003;54688;52.376;16.744;2023-01-15T13:47:36;9;5;
67892;PMS7003;54688;52.376;16.744;2023-01-15T13:50:40;21;12;
67892;PMS7003;54688;52.376;16.744;2023-01-15T13:53:44;16;14;
67892;PMS7003;54688;52.376;16.744;2023-01-15T13:56:46;16;14;
67892;PMS7003;54688;52.376;16.744;2023-01-15T13:59:49;13;11;
67892;PMS7003;54688;52.376;16.744;2023-01-15T14:02:52;12;9;
67892;PMS7003;54688;52.376;16.744;2023-01-15T14:05:57;11;8;
67892;PMS7003;54688;52.376;16.744;2023-01-15T14:09:00;10;7;
67892;PMS7003;54688;52.376;16.744;2023-01-15T14:12:12;19;18;
67892;PMS7003;54688;52.376;16.744;2023-01-15T14:15:26;17;13;
67892;PMS7003;54688;52.376;16.744;2023-01-15T14:18:43;26;13;
67892;PMS7003;54688;52.376;16.744;2023-01-15T14:21:59;18;13;
67892;PMS7003;54688;52.376;16.744;2023-01-15T14:25:17;10;6;
67892;PMS7003;54688;52.376;16.744;2023-01-15T14:28:30;8;8;
67892;PMS7003;54688;52.376;16.744;2023-01-15T14:31:41;6;6;
67892;PMS7003;54688;52.376;16.744;2023-01-15T14:34:53;9;8;
67892;PMS7003;54688;52.376;16.744;2023-01-15T14:38:03;13;7;
67892;PMS7003;54688;52.376;16.744;2023-01-15T14:44:05;10;7;
67892;PMS7003;54688;52.376;16.744;2023-01-15T14:47:24;5;5;
67892;PMS7003;54688;52.376;16.744;2023-01-15T14:50:33;6;5;
67892;PMS7003;54688;52.376;16.744;2023-01-15T14:53:38;18;11;
67892;PMS7003;54688;52.376;16.744;2023-01-15T14:56:43;7;5;
67892;PMS7003;54688;52.376;16.744;2023-01-15T14:59:48;7;6;
67892;PMS7003;54688;52.376;16.744;2023-01-15T15:02:54;7;5;
67892;PMS7003;54688;52.376;16.744;2023-01-15T15:09:02;10;4;
67892;PMS7003;54688;52.376;16.744;2023-01-15T15:12:19;8;5;
67892;PMS7003;54688;52.376;16.744;2023-01-15T15:15:32;5;5;
67892;PMS7003;54688;52.376;16.744;2023-01-15T15:18:40;11;10;
67892;PMS7003;54688;52.376;16.744;2023-01-15T15:21:45;18;9;
67892;PMS7003;54688;52.376;16.744;2023-01-15T15:24:50;4;4;
67892;PMS7003;54688;52.376;16.744;2023-01-15T15:28:03;4;4;
67892;PMS7003;54688;52.376;16.744;2023-01-15T15:31:08;4;4;
67892;PMS7003;54688;52.376;16.744;2023-01-15T15:34:16;6;4;
67892;PMS7003;54688;52.376;16.744;2023-01-15T15:37:22;6;6;
67892;PMS7003;54688;52.376;16.744;2023-01-15T15:40:31;12;10;
67892;PMS7003;54688;52.376;16.744;2023-01-15T15:43:43;6;6;
67892;PMS7003;54688;52.376;16.744;2023-01-15T15:46:48;6;5;
67892;PMS7003;54688;52.376;16.744;2023-01-15T15:49:51;3;3;
67892;PMS7003;54688;52.376;16.744;2023-01-15T15:52:53;12;10;
67892;PMS7003;54688;52.376;16.744;2023-01-15T15:55:57;14;8;
67892;PMS7003;54688;52.376;16.744;2023-01-15T15:59:01;11;9;
67892;PMS7003;54688;52.376;16.744;2023-01-15T16:02:14;8;6;
67892;PMS7003;54688;52.376;16.744;2023-01-15T16:05:22;9;8;
67892;PMS7003;54688;52.376;16.744;2023-01-15T16:08:26;17;15;
67892;PMS7003;54688;52.376;16.744;2023-01-15T16:11:28;23;18;
67892;PMS7003;54688;52.376;16.744;2023-01-15T16:14:33;19;14;
67892;PMS7003;54688;52.376;16.744;2023-01-15T16:17:38;33;22;
67892;PMS7003;54688;52.376;16.744;2023-01-15T16:20:42;34;27;
67892;PMS7003;54688;52.376;16.744;2023-01-15T16:23:55;62;44;
67892;PMS7003;54688;52.376;16.744;2023-01-15T16:27:00;29;21;
67892;PMS7003;54688;52.376;16.744;2023-01-15T16:30:05;48;32;
67892;PMS7003;54688;52.376;16.744;2023-01-15T16:36:08;10;8;
67892;PMS7003;54688;52.376;16.744;2023-01-15T16:39:19;13;10;
67892;PMS7003;54688;52.376;16.744;2023-01-15T16:42:25;7;7;
67892;PMS7003;54688;52.376;16.744;2023-01-15T16:45:28;11;10;
67892;PMS7003;54688;52.376;16.744;2023-01-15T16:48:32;15;15;
67892;PMS7003;54688;52.376;16.744;2023-01-15T16:51:35;10;10;
67892;PMS7003;54688;52.376;16.744;2023-01-15T16:54:42;18;10;
67892;PMS7003;54688;52.376;16.744;2023-01-15T16:57:44;19;10;
67892;PMS7003;54688;52.376;16.744;2023-01-15T17:00:48;20;14;
67892;PMS7003;54688;52.376;16.744;2023-01-15T17:03:51;18;12;
67892;PMS7003;54688;52.376;16.744;2023-01-15T17:06:57;15;13;
67892;PMS7003;54688;52.376;16.744;2023-01-15T17:10:00;33;24;
67892;PMS7003;54688;52.376;16.744;2023-01-15T17:13:04;23;16;
67892;PMS7003;54688;52.376;16.744;2023-01-15T17:16:15;15;12;
67892;PMS7003;54688;52.376;16.744;2023-01-15T17:19:18;12;11;
67892;PMS7003;54688;52.376;16.744;2023-01-15T17:25:21;11;10;
67892;PMS7003;54688;52.376;16.744;2023-01-15T17:28:23;11;8;
67892;PMS7003;54688;52.376;16.744;2023-01-15T17:31:27;15;11;
67892;PMS7003;54688;52.376;16.744;2023-01-15T17:34:30;12;11;
67892;PMS7003;54688;52.376;16.744;2023-01-15T17:37:32;9;8;
67892;PMS7003;54688;52.376;16.744;2023-01-15T17:40:35;8;7;
67892;PMS7003;54688;52.376;16.744;2023-01-15T17:46:35;41;29;
67892;PMS7003;54688;52.376;16.744;2023-01-15T17:49:38;19;16;
67892;PMS7003;54688;52.376;16.744;2023-01-15T17:52:41;14;12;
67892;PMS7003;54688;52.376;16.744;2023-01-15T17:55:44;15;13;
67892;PMS7003;54688;52.376;16.744;2023-01-15T17:58:46;13;13;
67892;PMS7003;54688;52.376;16.744;2023-01-15T18:04:51;12;10;
67892;PMS7003;54688;52.376;16.744;2023-01-15T18:10:54;17;12;
67892;PMS7003;54688;52.376;16.744;2023-01-15T18:13:56;19;16;
67892;PMS7003;54688;52.376;16.744;2023-01-15T18:16:58;16;12;
67892;PMS7003;54688;52.376;16.744;2023-01-15T18:20:00;22;15;
67892;PMS7003;54688;52.376;16.744;2023-01-15T18:23:02;16;10;
67892;PMS7003;54688;52.376;16.744;2023-01-15T18:26:05;14;10;
67892;PMS7003;54688;52.376;16.744;2023-01-15T18:29:08;12;8;
67892;PMS7003;54688;52.376;16.744;2023-01-15T18:32:11;17;11;
67892;PMS7003;54688;52.376;16.744;2023-01-15T18:35:13;7;7;
67892;PMS7003;54688;52.376;16.744;2023-01-15T18:38:15;13;11;
67892;PMS7003;54688;52.376;16.744;2023-01-15T18:41:19;13;13;
67892;PMS7003;54688;52.376;16.744;2023-01-15T18:44:24;10;9;
67892;PMS7003;54688;52.376;16.744;2023-01-15T18:47:27;17;14;
67892;PMS7003;54688;52.376;16.744;2023-01-15T18:50:29;17;11;
67892;PMS7003;54688;52.376;16.744;2023-01-15T18:56:30;19;12;
67892;PMS7003;54688;52.376;16.744;2023-01-15T18:59:32;13;11;
67892;PMS7003;54688;52.376;16.744;2023-01-15T19:02:34;16;9;
67892;PMS7003;54688;52.376;16.744;2023-01-15T19:05:37;8;8;
67892;PMS7003;54688;52.376;16.744;2023-01-15T19:08:39;8;8;
67892;PMS7003;54688;52.376;16.744;2023-01-15T19:11:41;9;9;
67892;PMS7003;54688;52.376;16.744;2023-01-15T19:14:44;7;6;
67892;PMS7003;54688;52.376;16.744;2023-01-15T19:17:46;8;6;
67892;PMS7003;54688;52.376;16.744;2023-01-15T19:20:48;8;5;
67892;PMS7003;54688;52.376;16.744;2023-01-15T19:23:50;5;4;
67892;PMS7003;54688;52.376;16.744;2023-01-15T19:26:52;5;5;
67892;PMS7003;54688;52.376;16.744;2023-01-15T19:29:55;5;5;
67892;PMS7003;54688;52.376;16.744;2023-01-15T19:32:57;16;12;
67892;PMS7003;54688;52.376;16.744;2023-01-15T19:35:59;32;25;
67892;PMS7003;54688;52.376;16.744;2023-01-15T19:39:02;21;18;
67892;PMS7003;54688;52.376;16.744;2023-01-15T19:42:04;48;33;
67892;PMS7003;54688;52.376;16.744;2023-01-15T19:45:08;24;22;
67892;PMS7003;54688;52.376;16.744;2023-01-15T19:48:11;11;11;
67892;PMS7003;54688;52.376;16.744;2023-01-15T19:51:13;9;7;
67892;PMS7003;54688;52.376;16.744;2023-01-15T19:54:15;6;4;
67892;PMS7003;54688;52.376;16.744;2023-01-15T19:57:17;5;4;
67892;PMS7003;54688;52.376;16.744;2023-01-15T20:00:21;9;5;
67892;PMS7003;54688;52.376;16.744;2023-01-15T20:06:23;12;7;
67892;PMS7003;54688;52.376;16.744;2023-01-15T20:09:26;9;6;
67892;PMS7003;54688;52.376;16.744;2023-01-15T20:12:28;6;5;
67892;PMS7003;54688;52.376;16.744;2023-01-15T20:15:31;15;11;
67892;PMS7003;54688;52.376;16.744;2023-01-15T20:18:34;9;8;
67892;PMS7003;54688;52.376;16.744;2023-01-15T20:21:36;6;5;
67892;PMS7003;54688;52.376;16.744;2023-01-15T20:24:38;10;5;
67892;PMS7003;54688;52.376;16.744;2023-01-15T20:27:40;6;5;
67892;PMS7003;54688;52.376;16.744;2023-01-15T20:30:42;7;5;
67892;PMS7003;54688;52.376;16.744;2023-01-15T20:33:45;6;5;
67892;PMS7003;54688;52.376;16.744;2023-01-15T20:36:48;5;4;
67892;PMS7003;54688;52.376;16.744;2023-01-15T20:39:50;6;6;
67892;PMS7003;54688;52.376;16.744;2023-01-15T20:42:53;6;5;
67892;PMS7003;54688;52.376;16.744;2023-01-15T20:46:05;6;4;
67892;PMS7003;54688;52.376;16.744;2023-01-15T20:49:08;5;4;
67892;PMS7003;54688;52.376;16.744;2023-01-15T20:52:11;5;4;
67892;PMS7003;54688;52.376;16.744;2023-01-15T20:55:15;4;4;
67892;PMS7003;54688;52.376;16.744;2023-01-15T20:58:17;3;3;
67892;PMS7003;54688;52.376;16.744;2023-01-15T21:01:19;5;3;
67892;PMS7003;54688;52.376;16.744;2023-01-15T21:04:21;3;3;
67892;PMS7003;54688;52.376;16.744;2023-01-15T21:07:23;3;3;
67892;PMS7003;54688;52.376;16.744;2023-01-15T21:10:25;7;6;
67892;PMS7003;54688;52.376;16.744;2023-01-15T21:13:27;4;4;
67892;PMS7003;54688;52.376;16.744;2023-01-15T21:16:29;4;4;
67892;PMS7003;54688;52.376;16.744;2023-01-15T21:19:31;5;3;
67892;PMS7003;54688;52.376;16.744;2023-01-15T21:22:33;3;3;
67892;PMS7003;54688;52.376;16.744;2023-01-15T21:25:37;3;1;
67892;PMS7003;54688;52.376;16.744;2023-01-15T21:28:39;4;4;
67892;PMS7003;54688;52.376;16.744;2023-01-15T21:34:40;3;3;
67892;PMS7003;54688;52.376;16.744;2023-01-15T21:37:41;6;2;
67892;PMS7003;54688;52.376;16.744;2023-01-15T21:40:43;3;3;
67892;PMS7003;54688;52.376;16.744;2023-01-15T21:43:45;4;3;